sensor_id;sensor_type;location;lat;lon;timestamp;temperature;humidity
19330;DHT22;9799;48.214;16.388;2024-02-21T00:02:10;9.60;99.90
19330;DHT22;9799;48.214;16.388;2024-02-21T00:05:33;9.50;99.90
19330;DHT22;9799;48.214;16.388;2024-02-21T00:08:55;9.50;99.90
19330;DHT22;9799;48.214;16.388;2024-02-21T00:12:16;9.40;99.90
19330;DHT22;9799;48.214;16.388;2024-02-21T00:15:39;9.40;99.90
19330;DHT22;9799;48.214;16.388;2024-02-21T00:19:00;9.40;99.90
19330;DHT22;9799;48.214;16.388;2024-02-21T00:22:23;9.50;99.90
19330;DHT22;9799;48.214;16.388;2024-02-21T00:25:45;9.50;99.90
19330;DHT22;9799;48.214;16.388;2024-02-21T00:29:06;9.50;99.90
19330;DHT22;9799;48.214;16.388;2024-02-21T00:32:27;9.60;99.90
19330;DHT22;9799;48.214;16.388;2024-02-21T00:35:48;9.40;99.90
19330;DHT22;9799;48.214;16.388;2024-02-21T00:39:11;9.50;99.90
19330;DHT22;9799;48.214;16.388;2024-02-21T00:42:32;9.40;99.90
19330;DHT22;9799;48.214;16.388;2024-02-21T00:45:54;9.50;99.90
19330;DHT22;9799;48.214;16.388;2024-02-21T00:49:15;9.50;99.90
19330;DHT22;9799;48.214;16.388;2024-02-21T00:52:36;9.50;99.90
19330;DHT22;9799;48.214;16.388;2024-02-21T00:55:59;9.50;99.90
19330;DHT22;9799;48.214;16.388;2024-02-21T00:59:20;9.40;99.90
19330;DHT22;9799;48.214;16.388;2024-02-21T01:02:41;9.40;99.90
19330;DHT22;9799;48.214;16.388;2024-02-21T01:06:03;9.40;99.90
19330;DHT22;9799;48.214;16.388;2024-02-21T01:09:25;9.40;99.90
19330;DHT22;9799;48.214;16.388;2024-02-21T01:12:47;9.40;99.90
19330;DHT22;9799;48.214;16.388;2024-02-21T01:16:08;9.40;99.90
19330;DHT22;9799;48.214;16.388;2024-02-21T01:19:30;9.50;99.90
19330;DHT22;9799;48.214;16.388;2024-02-21T01:22:51;9.40;99.90
19330;DHT22;9799;48.214;16.388;2024-02-21T01:26:12;9.40;99.90
19330;DHT22;9799;48.214;16.388;2024-02-21T01:29:36;9.50;99.90
19330;DHT22;9799;48.214;16.388;2024-02-21T01:32:57;9.50;99.90
19330;DHT22;9799;48.214;16.388;2024-02-21T01:36:19;9.50;99.90
19330;DHT22;9799;48.214;16.388;2024-02-21T01:39:40;9.50;99.90
19330;DHT22;9799;48.214;16.388;2024-02-21T01:43:01;9.50;99.90
19330;DHT22;9799;48.214;16.388;2024-02-21T01:46:24;9.50;99.90
19330;DHT22;9799;48.214;16.388;2024-02-21T01:49:47;9.50;99.90
19330;DHT22;9799;48.214;16.388;2024-02-21T01:53:09;9.50;99.90
19330;DHT22;9799;48.214;16.388;2024-02-21T01:56:37;9.40;99.90
19330;DHT22;9799;48.214;16.388;2024-02-21T01:59:59;9.40;99.90
19330;DHT22;9799;48.214;16.388;2024-02-21T02:03:21;9.40;99.90
19330;DHT22;9799;48.214;16.388;2024-02-21T02:06:43;9.40;99.90
19330;DHT22;9799;48.214;16.388;2024-02-21T02:10:06;9.40;99.90
19330;DHT22;9799;48.214;16.388;2024-02-21T02:13:27;9.40;99.90
19330;DHT22;9799;48.214;16.388;2024-02-21T02:16:48;9.40;99.90
19330;DHT22;9799;48.214;16.388;2024-02-21T02:20:12;9.50;99.90
19330;DHT22;9799;48.214;16.388;2024-02-21T02:23:34;9.60;99.90
19330;DHT22;9799;48.214;16.388;2024-02-21T02:26:56;9.50;99.90
19330;DHT22;9799;48.214;16.388;2024-02-21T02:30:17;9.40;99.90
19330;DHT22;9799;48.214;16.388;2024-02-21T02:33:38;9.40;99.90
19330;DHT22;9799;48.214;16.388;2024-02-21T02:36:59;9.40;99.90
19330;DHT22;9799;48.214;16.388;2024-02-21T02:40:22;9.40;99.90
19330;DHT22;9799;48.214;16.388;2024-02-21T02:43:43;9.40;99.90
19330;DHT22;9799;48.214;16.388;2024-02-21T02:47:04;9.40;99.90
19330;DHT22;9799;48.214;16.388;2024-02-21T02:50:27;9.40;99.90
19330;DHT22;9799;48.214;16.388;2024-02-21T02:53:48;9.30;99.90
19330;DHT22;9799;48.214;16.388;2024-02-21T02:57:11;9.30;99.90
19330;DHT22;9799;48.214;16.388;2024-02-21T03:00:32;9.30;99.90
19330;DHT22;9799;48.214;16.388;2024-02-21T03:03:56;9.30;99.90
19330;DHT22;9799;48.214;16.388;2024-02-21T03:07:17;9.30;99.90
19330;DHT22;9799;48.214;16.388;2024-02-21T03:10:38;9.30;99.90
19330;DHT22;9799;48.214;16.388;2024-02-21T03:14:01;9.30;99.90
19330;DHT22;9799;48.214;16.388;2024-02-21T03:17:22;9.30;99.90
19330;DHT22;9799;48.214;16.388;2024-02-21T03:20:43;9.30;99.90
19330;DHT22;9799;48.214;16.388;2024-02-21T03:24:05;9.40;99.90
19330;DHT22;9799;48.214;16.388;2024-02-21T03:27:27;9.40;99.90
19330;DHT22;9799;48.214;16.388;2024-02-21T03:30:49;9.40;99.90
19330;DHT22;9799;48.214;16.388;2024-02-21T03:34:11;9.40;99.90
19330;DHT22;9799;48.214;16.388;2024-02-21T03:37:32;9.40;99.90
19330;DHT22;9799;48.214;16.388;2024-02-21T03:40:53;9.50;99.90
19330;DHT22;9799;48.214;16.388;2024-02-21T03:44:14;9.40;99.90
19330;DHT22;9799;48.214;16.388;2024-02-21T03:47:37;9.40;99.90
19330;DHT22;9799;48.214;16.388;2024-02-21T03:50:58;9.30;99.90
19330;DHT22;9799;48.214;16.388;2024-02-21T03:54:20;9.20;99.90
19330;DHT22;9799;48.214;16.388;2024-02-21T03:57:41;9.20;99.90
19330;DHT22;9799;48.214;16.388;2024-02-21T04:01:03;9.10;99.90
19330;DHT22;9799;48.214;16.388;2024-02-21T04:04:25;9.20;99.90
19330;DHT22;9799;48.214;16.388;2024-02-21T04:07:47;9.10;99.90
19330;DHT22;9799;48.214;16.388;2024-02-21T04:11:08;9.10;99.90
19330;DHT22;9799;48.214;16.388;2024-02-21T04:14:29;9.10;99.90
19330;DHT22;9799;48.214;16.388;2024-02-21T04:17:50;9.20;99.90
19330;DHT22;9799;48.214;16.388;2024-02-21T04:21:16;9.20;99.90
19330;DHT22;9799;48.214;16.388;2024-02-21T04:24:37;9.10;99.90
19330;DHT22;9799;48.214;16.388;2024-02-21T04:27:59;9.20;99.90
19330;DHT22;9799;48.214;16.388;2024-02-21T04:31:20;9.20;99.90
19330;DHT22;9799;48.214;16.388;2024-02-21T04:34:42;9.10;99.90
19330;DHT22;9799;48.214;16.388;2024-02-21T04:38:05;9.10;99.90
19330;DHT22;9799;48.214;16.388;2024-02-21T04:41:26;9.10;99.90
19330;DHT22;9799;48.214;16.388;2024-02-21T04:44:47;9.20;99.90
19330;DHT22;9799;48.214;16.388;2024-02-21T04:48:08;9.10;99.90
19330;DHT22;9799;48.214;16.388;2024-02-21T04:51:30;9.10;99.90
19330;DHT22;9799;48.214;16.388;2024-02-21T04:54:53;9.10;99.90
19330;DHT22;9799;48.214;16.388;2024-02-21T04:58:14;9.10;99.90
19330;DHT22;9799;48.214;16.388;2024-02-21T05:01:35;9.10;99.90
19330;DHT22;9799;48.214;16.388;2024-02-21T05:04:56;9.10;99.90
19330;DHT22;9799;48.214;16.388;2024-02-21T05:08:17;9.20;99.90
19330;DHT22;9799;48.214;16.388;2024-02-21T05:11:40;9.10;99.90
19330;DHT22;9799;48.214;16.388;2024-02-21T05:15:02;9.20;99.90
19330;DHT22;9799;48.214;16.388;2024-02-21T05:18:23;9.20;99.90
19330;DHT22;9799;48.214;16.388;2024-02-21T05:21:44;9.20;99.90
19330;DHT22;9799;48.214;16.388;2024-02-21T05:25:07;9.20;99.90
19330;DHT22;9799;48.214;16.388;2024-02-21T05:28:29;9.20;99.90
19330;DHT22;9799;48.214;16.388;2024-02-21T05:31:57;9.10;99.90
19330;DHT22;9799;48.214;16.388;2024-02-21T05:35:18;9.10;99.90
19330;DHT22;9799;48.214;16.388;2024-02-21T05:38:41;9.20;99.90
19330;DHT22;9799;48.214;16.388;2024-02-21T05:42:02;9.30;99.90
19330;DHT22;9799;48.214;16.388;2024-02-21T05:45:25;9.30;99.90
19330;DHT22;9799;48.214;16.388;2024-02-21T05:48:46;9.30;99.90
19330;DHT22;9799;48.214;16.388;2024-02-21T05:52:07;9.30;99.90
19330;DHT22;9799;48.214;16.388;2024-02-21T05:55:28;9.30;99.90
19330;DHT22;9799;48.214;16.388;2024-02-21T05:58:50;9.30;99.90
19330;DHT22;9799;48.214;16.388;2024-02-21T06:02:12;9.20;99.90
19330;DHT22;9799;48.214;16.388;2024-02-21T06:05:37;9.30;99.90
19330;DHT22;9799;48.214;16.388;2024-02-21T06:08:58;9.30;99.90
19330;DHT22;9799;48.214;16.388;2024-02-21T06:12:20;9.40;99.90
19330;DHT22;9799;48.214;16.388;2024-02-21T06:15:41;9.40;99.90
19330;DHT22;9799;48.214;16.388;2024-02-21T06:19:03;9.40;99.90
19330;DHT22;9799;48.214;16.388;2024-02-21T06:22:25;9.40;99.90
19330;DHT22;9799;48.214;16.388;2024-02-21T06:25:46;9.50;99.90
19330;DHT22;9799;48.214;16.388;2024-02-21T06:29:07;9.50;99.90
19330;DHT22;9799;48.214;16.388;2024-02-21T06:32:28;9.40;99.90
19330;DHT22;9799;48.214;16.388;2024-02-21T06:35:51;9.40;99.90
19330;DHT22;9799;48.214;16.388;2024-02-21T06:39:13;9.50;99.90
19330;DHT22;9799;48.214;16.388;2024-02-21T06:42:34;9.50;99.90
19330;DHT22;9799;48.214;16.388;2024-02-21T06:45:56;9.40;99.90
19330;DHT22;9799;48.214;16.388;2024-02-21T06:49:17;9.50;99.90
19330;DHT22;9799;48.214;16.388;2024-02-21T06:52:39;9.50;99.90
19330;DHT22;9799;48.214;16.388;2024-02-21T06:56:01;9.60;99.90
19330;DHT22;9799;48.214;16.388;2024-02-21T06:59:22;9.50;99.90
19330;DHT22;9799;48.214;16.388;2024-02-21T07:02:43;9.60;99.90
19330;DHT22;9799;48.214;16.388;2024-02-21T07:06:04;9.60;99.90
19330;DHT22;9799;48.214;16.388;2024-02-21T07:09:27;9.40;99.90
19330;DHT22;9799;48.214;16.388;2024-02-21T07:12:51;9.60;99.90
19330;DHT22;9799;48.214;16.388;2024-02-21T07:16:13;9.60;99.90
19330;DHT22;9799;48.214;16.388;2024-02-21T07:19:34;9.50;99.90
19330;DHT22;9799;48.214;16.388;2024-02-21T07:22:56;9.50;99.90
19330;DHT22;9799;48.214;16.388;2024-02-21T07:26:18;9.50;99.90
19330;DHT22;9799;48.214;16.388;2024-02-21T07:29:40;9.50;99.90
19330;DHT22;9799;48.214;16.388;2024-02-21T07:33:01;9.60;99.90
19330;DHT22;9799;48.214;16.388;2024-02-21T07:36:28;9.60;99.90
19330;DHT22;9799;48.214;16.388;2024-02-21T07:39:50;9.70;99.90
19330;DHT22;9799;48.214;16.388;2024-02-21T07:43:12;9.80;99.90
19330;DHT22;9799;48.214;16.388;2024-02-21T07:46:33;9.80;99.90
19330;DHT22;9799;48.214;16.388;2024-02-21T07:49:55;9.80;99.90
19330;DHT22;9799;48.214;16.388;2024-02-21T07:53:16;9.90;99.90
19330;DHT22;9799;48.214;16.388;2024-02-21T07:56:37;9.90;99.90
19330;DHT22;9799;48.214;16.388;2024-02-21T08:00:00;9.90;99.90
19330;DHT22;9799;48.214;16.388;2024-02-21T08:03:21;10.00;99.90
19330;DHT22;9799;48.214;16.388;2024-02-21T08:06:43;10.10;99.90
19330;DHT22;9799;48.214;16.388;2024-02-21T08:10:06;10.10;99.90
19330;DHT22;9799;48.214;16.388;2024-02-21T08:13:28;10.10;99.90
19330;DHT22;9799;48.214;16.388;2024-02-21T08:16:51;10.20;99.90
19330;DHT22;9799;48.214;16.388;2024-02-21T08:20:13;10.30;99.90
19330;DHT22;9799;48.214;16.388;2024-02-21T08:23:34;10.30;99.90
19330;DHT22;9799;48.214;16.388;2024-02-21T08:26:55;10.30;99.90
19330;DHT22;9799;48.214;16.388;2024-02-21T08:30:17;10.40;99.90
19330;DHT22;9799;48.214;16.388;2024-02-21T08:33:39;10.70;99.90
19330;DHT22;9799;48.214;16.388;2024-02-21T08:37:02;10.70;99.90
19330;DHT22;9799;48.214;16.388;2024-02-21T08:40:23;10.80;99.90
19330;DHT22;9799;48.214;16.388;2024-02-21T08:43:44;11.10;99.90
19330;DHT22;9799;48.214;16.388;2024-02-21T08:47:06;11.10;99.90
19330;DHT22;9799;48.214;16.388;2024-02-21T08:50:30;11.20;99.90
19330;DHT22;9799;48.214;16.388;2024-02-21T08:53:51;11.40;99.90
19330;DHT22;9799;48.214;16.388;2024-02-21T08:57:13;11.40;99.90
19330;DHT22;9799;48.214;16.388;2024-02-21T09:00:35;11.30;99.90
19330;DHT22;9799;48.214;16.388;2024-02-21T09:03:56;11.40;99.90
19330;DHT22;9799;48.214;16.388;2024-02-21T09:07:19;11.40;99.90
19330;DHT22;9799;48.214;16.388;2024-02-21T09:10:41;11.20;99.90
19330;DHT22;9799;48.214;16.388;2024-02-21T09:14:02;11.50;99.90
19330;DHT22;9799;48.214;16.388;2024-02-21T09:17:24;11.40;99.90
19330;DHT22;9799;48.214;16.388;2024-02-21T09:20:49;11.70;99.90
19330;DHT22;9799;48.214;16.388;2024-02-21T09:24:12;11.70;99.90
19330;DHT22;9799;48.214;16.388;2024-02-21T09:27:33;11.80;99.90
19330;DHT22;9799;48.214;16.388;2024-02-21T09:30:54;11.80;99.90
19330;DHT22;9799;48.214;16.388;2024-02-21T09:34:15;11.70;99.90
19330;DHT22;9799;48.214;16.388;2024-02-21T09:37:37;11.70;99.90
19330;DHT22;9799;48.214;16.388;2024-02-21T09:41:06;11.50;99.90
19330;DHT22;9799;48.214;16.388;2024-02-21T09:44:36;11.50;99.90
19330;DHT22;9799;48.214;16.388;2024-02-21T09:48:18;11.70;99.90
19330;DHT22;9799;48.214;16.388;2024-02-21T09:51:45;11.80;99.80
19330;DHT22;9799;48.214;16.388;2024-02-21T09:55:09;11.90;99.40
19330;DHT22;9799;48.214;16.388;2024-02-21T09:58:34;12.00;99.90
19330;DHT22;9799;48.214;16.388;2024-02-21T10:01:56;12.20;99.00
19330;DHT22;9799;48.214;16.388;2024-02-21T10:05:19;12.30;99.10
19330;DHT22;9799;48.214;16.388;2024-02-21T10:08:40;12.50;98.60
19330;DHT22;9799;48.214;16.388;2024-02-21T10:12:08;12.50;97.90
19330;DHT22;9799;48.214;16.388;2024-02-21T10:15:31;12.40;97.40
19330;DHT22;9799;48.214;16.388;2024-02-21T10:18:54;12.40;97.50
19330;DHT22;9799;48.214;16.388;2024-02-21T10:22:17;12.40;97.50
19330;DHT22;9799;48.214;16.388;2024-02-21T10:25:38;12.20;97.80
19330;DHT22;9799;48.214;16.388;2024-02-21T10:29:03;12.30;97.80
19330;DHT22;9799;48.214;16.388;2024-02-21T10:32:26;12.30;97.70
19330;DHT22;9799;48.214;16.388;2024-02-21T10:35:48;12.30;97.70
19330;DHT22;9799;48.214;16.388;2024-02-21T10:39:09;12.30;97.80
19330;DHT22;9799;48.214;16.388;2024-02-21T10:42:31;12.40;97.80
19330;DHT22;9799;48.214;16.388;2024-02-21T10:45:56;12.50;97.60
19330;DHT22;9799;48.214;16.388;2024-02-21T10:49:23;12.50;97.40
19330;DHT22;9799;48.214;16.388;2024-02-21T10:52:51;12.60;98.00
19330;DHT22;9799;48.214;16.388;2024-02-21T10:56:22;12.60;97.20
19330;DHT22;9799;48.214;16.388;2024-02-21T10:59:48;12.70;97.30
19330;DHT22;9799;48.214;16.388;2024-02-21T11:03:09;12.70;97.20
19330;DHT22;9799;48.214;16.388;2024-02-21T11:06:36;12.50;97.20
19330;DHT22;9799;48.214;16.388;2024-02-21T11:09:58;12.50;96.90
19330;DHT22;9799;48.214;16.388;2024-02-21T11:13:30;12.60;97.10
19330;DHT22;9799;48.214;16.388;2024-02-21T11:16:52;12.70;97.00
19330;DHT22;9799;48.214;16.388;2024-02-21T11:20:13;12.70;96.90
19330;DHT22;9799;48.214;16.388;2024-02-21T11:23:36;12.60;97.00
19330;DHT22;9799;48.214;16.388;2024-02-21T11:27:09;12.50;97.10
19330;DHT22;9799;48.214;16.388;2024-02-21T11:30:31;12.40;96.90
19330;DHT22;9799;48.214;16.388;2024-02-21T11:33:53;12.40;97.40
19330;DHT22;9799;48.214;16.388;2024-02-21T11:37:14;12.40;97.10
19330;DHT22;9799;48.214;16.388;2024-02-21T11:40:40;12.40;96.70
19330;DHT22;9799;48.214;16.388;2024-02-21T11:44:01;12.40;96.80
19330;DHT22;9799;48.214;16.388;2024-02-21T11:47:24;12.30;96.70
19330;DHT22;9799;48.214;16.388;2024-02-21T11:50:53;12.40;96.50
19330;DHT22;9799;48.214;16.388;2024-02-21T11:54:14;12.60;96.60
19330;DHT22;9799;48.214;16.388;2024-02-21T11:57:38;12.50;95.80
19330;DHT22;9799;48.214;16.388;2024-02-21T12:01:03;12.60;95.40
19330;DHT22;9799;48.214;16.388;2024-02-21T12:04:25;12.60;95.00
19330;DHT22;9799;48.214;16.388;2024-02-21T12:07:46;12.60;95.00
19330;DHT22;9799;48.214;16.388;2024-02-21T12:11:16;12.60;94.80
19330;DHT22;9799;48.214;16.388;2024-02-21T12:14:39;12.50;94.60
19330;DHT22;9799;48.214;16.388;2024-02-21T12:18:01;12.50;94.30
19330;DHT22;9799;48.214;16.388;2024-02-21T12:21:24;12.50;94.20
19330;DHT22;9799;48.214;16.388;2024-02-21T12:24:48;12.50;93.90
19330;DHT22;9799;48.214;16.388;2024-02-21T12:28:09;12.40;94.00
19330;DHT22;9799;48.214;16.388;2024-02-21T12:31:32;12.40;94.00
19330;DHT22;9799;48.214;16.388;2024-02-21T12:34:53;12.50;93.60
19330;DHT22;9799;48.214;16.388;2024-02-21T12:38:14;12.50;93.30
19330;DHT22;9799;48.214;16.388;2024-02-21T12:41:38;12.50;93.20
19330;DHT22;9799;48.214;16.388;2024-02-21T12:45:01;12.50;93.10
19330;DHT22;9799;48.214;16.388;2024-02-21T12:48:24;12.60;93.20
19330;DHT22;9799;48.214;16.388;2024-02-21T12:51:45;12.60;93.10
19330;DHT22;9799;48.214;16.388;2024-02-21T12:55:08;12.70;92.80
19330;DHT22;9799;48.214;16.388;2024-02-21T12:58:30;12.70;92.80
19330;DHT22;9799;48.214;16.388;2024-02-21T13:01:52;12.70;92.50
19330;DHT22;9799;48.214;16.388;2024-02-21T13:05:14;12.80;92.40
19330;DHT22;9799;48.214;16.388;2024-02-21T13:08:36;12.80;92.40
19330;DHT22;9799;48.214;16.388;2024-02-21T13:11:57;12.90;92.10
19330;DHT22;9799;48.214;16.388;2024-02-21T13:15:20;12.90;91.40
19330;DHT22;9799;48.214;16.388;2024-02-21T13:18:41;12.90;91.50
19330;DHT22;9799;48.214;16.388;2024-02-21T13:22:04;13.00;91.30
19330;DHT22;9799;48.214;16.388;2024-02-21T13:25:25;13.00;91.30
19330;DHT22;9799;48.214;16.388;2024-02-21T13:28:46;12.90;91.50
19330;DHT22;9799;48.214;16.388;2024-02-21T13:32:08;12.90;91.30
19330;DHT22;9799;48.214;16.388;2024-02-21T13:35:29;12.90;91.30
19330;DHT22;9799;48.214;16.388;2024-02-21T13:38:52;12.90;91.00
19330;DHT22;9799;48.214;16.388;2024-02-21T13:42:13;12.90;91.20
19330;DHT22;9799;48.214;16.388;2024-02-21T13:45:35;13.10;91.20
19330;DHT22;9799;48.214;16.388;2024-02-21T13:49:03;13.10;91.00
19330;DHT22;9799;48.214;16.388;2024-02-21T13:52:26;13.20;90.30
19330;DHT22;9799;48.214;16.388;2024-02-21T13:55:49;13.20;89.90
19330;DHT22;9799;48.214;16.388;2024-02-21T13:59:11;13.20;90.60
19330;DHT22;9799;48.214;16.388;2024-02-21T14:02:33;13.20;90.00
19330;DHT22;9799;48.214;16.388;2024-02-21T14:05:54;13.20;90.00
19330;DHT22;9799;48.214;16.388;2024-02-21T14:09:15;13.20;88.90
19330;DHT22;9799;48.214;16.388;2024-02-21T14:12:38;13.10;88.70
19330;DHT22;9799;48.214;16.388;2024-02-21T14:16:00;13.20;89.10
19330;DHT22;9799;48.214;16.388;2024-02-21T14:19:21;13.20;88.00
19330;DHT22;9799;48.214;16.388;2024-02-21T14:22:42;13.20;87.90
19330;DHT22;9799;48.214;16.388;2024-02-21T14:26:04;13.20;88.70
19330;DHT22;9799;48.214;16.388;2024-02-21T14:29:27;13.20;87.80
19330;DHT22;9799;48.214;16.388;2024-02-21T14:32:49;13.20;88.00
19330;DHT22;9799;48.214;16.388;2024-02-21T14:36:11;13.30;88.80
19330;DHT22;9799;48.214;16.388;2024-02-21T14:39:32;13.40;88.80
19330;DHT22;9799;48.214;16.388;2024-02-21T14:42:54;13.40;88.40
19330;DHT22;9799;48.214;16.388;2024-02-21T14:46:17;13.40;88.40
19330;DHT22;9799;48.214;16.388;2024-02-21T14:49:38;13.30;88.50
19330;DHT22;9799;48.214;16.388;2024-02-21T14:53:00;13.30;87.90
19330;DHT22;9799;48.214;16.388;2024-02-21T14:56:21;13.30;88.00
19330;DHT22;9799;48.214;16.388;2024-02-21T14:59:42;13.30;88.40
19330;DHT22;9799;48.214;16.388;2024-02-21T15:03:05;13.30;88.20
19330;DHT22;9799;48.214;16.388;2024-02-21T15:06:26;13.30;88.80
19330;DHT22;9799;48.214;16.388;2024-02-21T15:09:48;13.30;87.50
19330;DHT22;9799;48.214;16.388;2024-02-21T15:13:09;13.30;87.40
19330;DHT22;9799;48.214;16.388;2024-02-21T15:16:30;13.30;87.20
19330;DHT22;9799;48.214;16.388;2024-02-21T15:19:54;13.30;87.80
19330;DHT22;9799;48.214;16.388;2024-02-21T15:23:15;13.30;88.20
19330;DHT22;9799;48.214;16.388;2024-02-21T15:26:37;13.30;88.60
19330;DHT22;9799;48.214;16.388;2024-02-21T15:29:58;13.20;89.00
19330;DHT22;9799;48.214;16.388;2024-02-21T15:33:20;13.10;89.60
19330;DHT22;9799;48.214;16.388;2024-02-21T15:36:43;13.00;90.20
19330;DHT22;9799;48.214;16.388;2024-02-21T15:40:05;12.90;90.20
19330;DHT22;9799;48.214;16.388;2024-02-21T15:43:28;13.00;90.20
19330;DHT22;9799;48.214;16.388;2024-02-21T15:46:49;13.00;90.50
19330;DHT22;9799;48.214;16.388;2024-02-21T15:50:10;12.90;90.50
19330;DHT22;9799;48.214;16.388;2024-02-21T15:53:33;12.90;91.10
19330;DHT22;9799;48.214;16.388;2024-02-21T15:56:55;12.80;90.80
19330;DHT22;9799;48.214;16.388;2024-02-21T16:00:17;12.70;90.90
19330;DHT22;9799;48.214;16.388;2024-02-21T16:03:38;12.70;90.90
19330;DHT22;9799;48.214;16.388;2024-02-21T16:07:00;12.70;91.10
19330;DHT22;9799;48.214;16.388;2024-02-21T16:10:23;12.70;91.10
19330;DHT22;9799;48.214;16.388;2024-02-21T16:13:44;12.60;92.40
19330;DHT22;9799;48.214;16.388;2024-02-21T16:17:06;12.60;91.30
19330;DHT22;9799;48.214;16.388;2024-02-21T16:20:27;12.60;91.50
19330;DHT22;9799;48.214;16.388;2024-02-21T16:23:48;12.50;91.50
19330;DHT22;9799;48.214;16.388;2024-02-21T16:27:11;12.40;91.70
19330;DHT22;9799;48.214;16.388;2024-02-21T16:30:32;12.40;91.60
19330;DHT22;9799;48.214;16.388;2024-02-21T16:33:53;12.30;91.60
19330;DHT22;9799;48.214;16.388;2024-02-21T16:37:15;12.30;91.80
19330;DHT22;9799;48.214;16.388;2024-02-21T16:40:36;12.30;92.00
19330;DHT22;9799;48.214;16.388;2024-02-21T16:43:59;12.30;92.00
19330;DHT22;9799;48.214;16.388;2024-02-21T16:47:20;12.20;92.10
19330;DHT22;9799;48.214;16.388;2024-02-21T16:50:42;12.20;92.50
19330;DHT22;9799;48.214;16.388;2024-02-21T16:54:03;12.20;92.50
19330;DHT22;9799;48.214;16.388;2024-02-21T16:57:28;12.20;92.50
19330;DHT22;9799;48.214;16.388;2024-02-21T17:00:50;12.10;92.40
19330;DHT22;9799;48.214;16.388;2024-02-21T17:04:12;12.00;92.50
19330;DHT22;9799;48.214;16.388;2024-02-21T17:07:35;12.00;92.60
19330;DHT22;9799;48.214;16.388;2024-02-21T17:10:57;12.00;92.50
19330;DHT22;9799;48.214;16.388;2024-02-21T17:14:18;12.00;92.80
19330;DHT22;9799;48.214;16.388;2024-02-21T17:17:41;12.00;93.00
19330;DHT22;9799;48.214;16.388;2024-02-21T17:21:02;12.00;93.10
19330;DHT22;9799;48.214;16.388;2024-02-21T17:24:24;12.00;93.00
19330;DHT22;9799;48.214;16.388;2024-02-21T17:27:46;12.00;93.30
19330;DHT22;9799;48.214;16.388;2024-02-21T17:31:10;11.90;93.30
19330;DHT22;9799;48.214;16.388;2024-02-21T17:34:32;11.90;93.40
19330;DHT22;9799;48.214;16.388;2024-02-21T17:37:54;11.90;94.00
19330;DHT22;9799;48.214;16.388;2024-02-21T17:41:14;11.90;93.70
19330;DHT22;9799;48.214;16.388;2024-02-21T17:44:36;11.90;94.00
19330;DHT22;9799;48.214;16.388;2024-02-21T17:48:00;11.70;93.90
19330;DHT22;9799;48.214;16.388;2024-02-21T17:51:23;11.60;94.10
19330;DHT22;9799;48.214;16.388;2024-02-21T17:54:44;11.60;94.20
19330;DHT22;9799;48.214;16.388;2024-02-21T17:58:07;11.70;94.10
19330;DHT22;9799;48.214;16.388;2024-02-21T18:01:28;11.60;94.40
19330;DHT22;9799;48.214;16.388;2024-02-21T18:04:50;11.50;94.50
19330;DHT22;9799;48.214;16.388;2024-02-21T18:08:13;11.40;94.70
19330;DHT22;9799;48.214;16.388;2024-02-21T18:11:35;11.40;94.90
19330;DHT22;9799;48.214;16.388;2024-02-21T18:14:58;11.40;94.60
19330;DHT22;9799;48.214;16.388;2024-02-21T18:18:20;11.30;94.70
19330;DHT22;9799;48.214;16.388;2024-02-21T18:21:42;11.30;94.70
19330;DHT22;9799;48.214;16.388;2024-02-21T18:25:06;11.30;94.90
19330;DHT22;9799;48.214;16.388;2024-02-21T18:28:28;11.20;95.00
19330;DHT22;9799;48.214;16.388;2024-02-21T18:31:50;11.20;95.20
19330;DHT22;9799;48.214;16.388;2024-02-21T18:35:11;11.20;95.80
19330;DHT22;9799;48.214;16.388;2024-02-21T18:38:34;11.10;95.60
19330;DHT22;9799;48.214;16.388;2024-02-21T18:41:57;11.10;95.60
19330;DHT22;9799;48.214;16.388;2024-02-21T18:45:18;11.10;95.90
19330;DHT22;9799;48.214;16.388;2024-02-21T18:48:39;11.00;96.00
19330;DHT22;9799;48.214;16.388;2024-02-21T18:52:06;11.00;96.20
19330;DHT22;9799;48.214;16.388;2024-02-21T18:55:28;11.10;96.30
19330;DHT22;9799;48.214;16.388;2024-02-21T18:58:51;11.00;96.00
19330;DHT22;9799;48.214;16.388;2024-02-21T19:02:12;11.00;96.30
19330;DHT22;9799;48.214;16.388;2024-02-21T19:05:33;10.90;96.80
19330;DHT22;9799;48.214;16.388;2024-02-21T19:08:55;11.00;97.00
19330;DHT22;9799;48.214;16.388;2024-02-21T19:12:16;11.00;97.10
19330;DHT22;9799;48.214;16.388;2024-02-21T19:15:40;11.00;96.90
19330;DHT22;9799;48.214;16.388;2024-02-21T19:19:02;10.90;97.30
19330;DHT22;9799;48.214;16.388;2024-02-21T19:22:24;10.80;97.20
19330;DHT22;9799;48.214;16.388;2024-02-21T19:25:49;10.60;97.60
19330;DHT22;9799;48.214;16.388;2024-02-21T19:29:10;10.40;98.00
19330;DHT22;9799;48.214;16.388;2024-02-21T19:32:33;10.40;98.20
19330;DHT22;9799;48.214;16.388;2024-02-21T19:35:55;10.30;98.40
19330;DHT22;9799;48.214;16.388;2024-02-21T19:39:16;10.30;98.60
19330;DHT22;9799;48.214;16.388;2024-02-21T19:42:38;10.20;98.60
19330;DHT22;9799;48.214;16.388;2024-02-21T19:46:01;10.20;99.30
19330;DHT22;9799;48.214;16.388;2024-02-21T19:49:24;10.10;99.30
19330;DHT22;9799;48.214;16.388;2024-02-21T19:52:46;10.00;99.40
19330;DHT22;9799;48.214;16.388;2024-02-21T19:56:07;10.00;99.70
19330;DHT22;9799;48.214;16.388;2024-02-21T19:59:34;10.00;99.90
19330;DHT22;9799;48.214;16.388;2024-02-21T20:02:56;9.90;99.90
19330;DHT22;9799;48.214;16.388;2024-02-21T20:06:19;9.90;99.90
19330;DHT22;9799;48.214;16.388;2024-02-21T20:09:41;9.90;99.90
19330;DHT22;9799;48.214;16.388;2024-02-21T20:13:04;9.80;99.90
19330;DHT22;9799;48.214;16.388;2024-02-21T20:16:26;9.80;99.90
19330;DHT22;9799;48.214;16.388;2024-02-21T20:19:48;9.70;99.90
19330;DHT22;9799;48.214;16.388;2024-02-21T20:23:11;9.70;99.90
19330;DHT22;9799;48.214;16.388;2024-02-21T20:26:35;9.70;99.90
19330;DHT22;9799;48.214;16.388;2024-02-21T20:29:57;9.60;99.90
19330;DHT22;9799;48.214;16.388;2024-02-21T20:33:18;9.60;99.90
19330;DHT22;9799;48.214;16.388;2024-02-21T20:36:39;9.50;99.90
19330;DHT22;9799;48.214;16.388;2024-02-21T20:40:05;9.50;99.90
19330;DHT22;9799;48.214;16.388;2024-02-21T20:43:28;9.40;99.90
19330;DHT22;9799;48.214;16.388;2024-02-21T20:46:49;9.40;99.90
19330;DHT22;9799;48.214;16.388;2024-02-21T20:50:11;9.40;99.90
19330;DHT22;9799;48.214;16.388;2024-02-21T20:53:32;9.30;99.90
19330;DHT22;9799;48.214;16.388;2024-02-21T20:56:55;9.20;99.90
19330;DHT22;9799;48.214;16.388;2024-02-21T21:00:17;9.20;99.90
19330;DHT22;9799;48.214;16.388;2024-02-21T21:03:41;9.20;99.90
19330;DHT22;9799;48.214;16.388;2024-02-21T21:07:03;9.30;99.90
19330;DHT22;9799;48.214;16.388;2024-02-21T21:10:26;9.30;99.90
19330;DHT22;9799;48.214;16.388;2024-02-21T21:13:49;9.30;99.90
19330;DHT22;9799;48.214;16.388;2024-02-21T21:17:11;9.20;99.90
19330;DHT22;9799;48.214;16.388;2024-02-21T21:20:33;9.20;99.90
19330;DHT22;9799;48.214;16.388;2024-02-21T21:23:55;9.10;99.90
19330;DHT22;9799;48.214;16.388;2024-02-21T21:27:16;9.00;99.90